createdAt,value
2023-04-14T00:00:47.788Z,100699.31
2023-04-14T00:03:16.706Z,100701.59
2023-04-14T00:05:44.654Z,100702.69
2023-04-14T00:08:12.451Z,100692.25
2023-04-14T00:10:41.667Z,100693.31
2023-04-14T00:13:09.355Z,100687.56
2023-04-14T00:15:37.004Z,100702.16
2023-04-14T00:18:04.836Z,100687.19
2023-04-14T00:20:32.601Z,100699.53
2023-04-14T00:23:00.283Z,100689.94
2023-04-14T00:25:27.980Z,100696.28
2023-04-14T00:27:57.025Z,100702.50
2023-04-14T00:30:24.927Z,100696.72
2023-04-14T00:32:52.668Z,100693.47
2023-04-14T00:35:20.674Z,100703.38
2023-04-14T00:37:48.396Z,100694.84
2023-04-14T00:40:16.074Z,100704.06
2023-04-14T00:42:45.099Z,100709.44
2023-04-14T00:45:15.199Z,100711.09
2023-04-14T00:47:46.985Z,100709.50
2023-04-14T00:50:15.570Z,100722.91
2023-04-14T00:52:44.246Z,100717.13
2023-04-14T00:55:12.088Z,100715.78
2023-04-14T00:57:40.061Z,100720.41
2023-04-14T01:00:08.775Z,100724.09
2023-04-14T01:02:38.856Z,100720.09
2023-04-14T01:05:06.923Z,100731.69
2023-04-14T01:07:34.739Z,100734.44
2023-04-14T01:10:02.509Z,100735.34
2023-04-14T01:12:40.573Z,100735.47
2023-04-14T01:15:13.583Z,100745.88
2023-04-14T01:17:50.832Z,100742.63
2023-04-14T01:20:24.223Z,100748.13
2023-04-14T01:22:55.556Z,100755.25
2023-04-14T01:25:52.983Z,100750.09
2023-04-14T01:28:35.728Z,100750.22
2023-04-14T01:31:20.667Z,100753.56
2023-04-14T01:33:51.475Z,100748.53
2023-04-14T01:36:23.713Z,100754.81
2023-04-14T01:38:51.912Z,100754.09
2023-04-14T01:41:19.954Z,100749.06
2023-04-14T01:43:51.109Z,100763.78
2023-04-14T01:46:21.071Z,100763.06
2023-04-14T01:48:49.527Z,100762.31
2023-04-14T01:51:19.301Z,100752.84
2023-04-14T01:53:47.397Z,100751.69
2023-04-14T01:56:16.379Z,100750.09
2023-04-14T01:58:45.232Z,100759.78
2023-04-14T02:01:13.448Z,100763.38
2023-04-14T02:03:43.814Z,100766.91
2023-04-14T02:06:12.274Z,100770.50
2023-04-14T02:08:40.704Z,100766.19
2023-04-14T02:11:09.863Z,100763.56
2023-04-14T02:13:39.898Z,100765.44
2023-04-14T02:16:08.981Z,100775.31
2023-04-14T02:18:36.833Z,100774.66
2023-04-14T02:21:06.682Z,100771.28
2023-04-14T02:23:34.305Z,100768.13
2023-04-14T02:26:05.596Z,100770.13
2023-04-14T02:28:35.615Z,100769.38
2023-04-14T02:31:07.622Z,100768.75
2023-04-14T02:33:37.846Z,100774.19
2023-04-14T02:36:10.292Z,100788.09
2023-04-14T02:38:39.991Z,100789.88
2023-04-14T02:41:09.175Z,100789.94
2023-04-14T02:43:43.216Z,100788.59
2023-04-14T02:46:12.852Z,100784.47
2023-04-14T02:48:42.995Z,100791.72
2023-04-14T02:51:13.602Z,100784.00
2023-04-14T02:53:41.772Z,100782.56
2023-04-14T02:56:09.892Z,100785.47
2023-04-14T02:58:38.249Z,100793.44
2023-04-14T03:01:06.466Z,100798.69
2023-04-14T03:03:37.395Z,100797.88
2023-04-14T03:06:06.920Z,100800.59
2023-04-14T03:08:36.483Z,100798.97
2023-04-14T03:11:06.404Z,100802.78
2023-04-14T03:13:35.503Z,100803.72
2023-04-14T03:16:04.390Z,100795.94
2023-04-14T03:18:33.369Z,100795.06
2023-04-14T03:21:02.453Z,100796.84
2023-04-14T03:23:30.283Z,100790.13
2023-04-14T03:26:00.041Z,100792.09
2023-04-14T03:28:30.405Z,100799.34
2023-04-14T03:31:01.219Z,100798.50
2023-04-14T03:33:30.231Z,100797.84
2023-04-14T03:35:58.729Z,100788.28
2023-04-14T03:38:28.835Z,100792.78
2023-04-14T03:41:01.168Z,100798.97
2023-04-14T03:43:29.672Z,100790.38
2023-04-14T03:45:58.124Z,100793.91
2023-04-14T03:48:27.338Z,100800.88
2023-04-14T03:50:56.623Z,100791.28
2023-04-14T03:53:24.693Z,100797.47
2023-04-14T03:55:53.122Z,100796.63
2023-04-14T03:58:22.486Z,100795.78
2023-04-14T04:00:50.484Z,100802.00
2023-04-14T04:03:19.190Z,100798.41
2023-04-14T04:05:47.702Z,100798.63
2023-04-14T04:08:15.817Z,100793.38
2023-04-14T04:10:44.972Z,100787.38
2023-04-14T04:13:17.210Z,100802.25
2023-04-14T04:15:46.695Z,100800.59
2023-04-14T04:18:16.882Z,100814.84
2023-04-14T04:20:46.172Z,100803.53
2023-04-14T04:23:14.949Z,100810.81
2023-04-14T04:25:42.837Z,100814.59
2023-04-14T04:28:10.637Z,100814.75
2023-04-14T04:30:40.493Z,100823.78
2023-04-14T04:33:10.109Z,100824.88
2023-04-14T04:35:37.779Z,100822.47
2023-04-14T04:38:05.880Z,100826.94
2023-04-14T04:40:37.004Z,100824.72
2023-04-14T04:43:04.680Z,100822.16
2023-04-14T04:45:46.409Z,100827.50
2023-04-14T04:48:15.591Z,100820.00
2023-04-14T04:50:43.338Z,100827.59
2023-04-14T04:53:12.209Z,100825.81
2023-04-14T04:55:41.741Z,100808.88
2023-04-14T04:58:09.577Z,100823.41
2023-04-14T05:00:37.262Z,100832.84
2023-04-14T05:03:05.308Z,100838.19
2023-04-14T05:05:37.575Z,100836.41
2023-04-14T05:08:05.787Z,100838.19
2023-04-14T05:10:35.298Z,100838.19
2023-04-14T05:13:02.929Z,100837.34
2023-04-14T05:15:30.631Z,100816.94
2023-04-14T05:17:59.180Z,100833.91
2023-04-14T05:20:26.986Z,100836.50
2023-04-14T05:22:56.282Z,100838.19
2023-04-14T05:25:23.916Z,100831.16
2023-04-14T05:27:51.623Z,100836.41
2023-04-14T05:30:19.339Z,100841.56
2023-04-14T05:32:47.054Z,100844.19
2023-04-14T05:35:14.885Z,100837.16
2023-04-14T05:37:42.565Z,100828.44
2023-04-14T05:40:13.034Z,100834.28
2023-04-14T05:42:41.885Z,100835.22
2023-04-14T05:45:10.840Z,100830.88
2023-04-14T05:47:39.680Z,100835.00
2023-04-14T05:50:08.940Z,100836.69
2023-04-14T05:52:36.633Z,100832.97
2023-04-14T05:55:04.368Z,100837.81
2023-04-14T05:57:33.500Z,100838.28
2023-04-14T06:00:01.223Z,100844.00
2023-04-14T06:02:29.205Z,100838.47
2023-04-14T06:04:57.453Z,100849.50
2023-04-14T06:07:25.337Z,100844.81
2023-04-14T06:09:53.067Z,100849.81
2023-04-14T06:12:20.990Z,100852.22
2023-04-14T06:14:50.170Z,100857.09
2023-04-14T06:17:17.890Z,100852.41
2023-04-14T06:19:46.863Z,100852.84
2023-04-14T06:22:16.945Z,100843.72
2023-04-14T06:24:45.259Z,100845.03
2023-04-14T06:27:13.036Z,100843.91
2023-04-14T06:29:40.812Z,100845.38
2023-04-14T06:32:10.023Z,100838.22
2023-04-14T06:34:37.750Z,100832.69
2023-04-14T06:37:05.889Z,100836.81
2023-04-14T06:39:33.616Z,100828.72
2023-04-14T06:42:01.366Z,100821.28
2023-04-14T06:44:29.107Z,100831.81
2023-04-14T06:46:57.235Z,100828.22
2023-04-14T06:49:26.379Z,100826.16
2023-04-14T06:51:54.031Z,100832.78
2023-04-14T06:54:21.647Z,100825.44
2023-04-14T06:56:49.341Z,100831.53
2023-04-14T06:59:16.998Z,100827.88
2023-04-14T07:01:44.822Z,100831.91
2023-04-14T07:04:14.557Z,100822.94
2023-04-14T07:06:43.723Z,100838.44
2023-04-14T07:09:11.397Z,100821.41
2023-04-14T07:11:40.343Z,100821.63
2023-04-14T07:14:08.093Z,100815.31
2023-04-14T07:16:35.879Z,100821.94
2023-04-14T07:19:03.714Z,100818.69
2023-04-14T07:21:31.999Z,100818.81
2023-04-14T07:24:01.604Z,100821.75
2023-04-14T07:26:29.578Z,100815.13
2023-04-14T07:28:57.642Z,100815.44
2023-04-14T07:31:25.456Z,100804.66
2023-04-14T07:33:53.113Z,100812.97
2023-04-14T07:36:20.759Z,100799.94
2023-04-14T07:38:51.067Z,100808.44
2023-04-14T07:41:20.314Z,100812.09
2023-04-14T07:43:47.966Z,100808.69
2023-04-14T07:46:15.677Z,100806.22
2023-04-14T07:48:43.836Z,100803.88
2023-04-14T07:51:12.157Z,100803.66
2023-04-14T07:53:43.247Z,100810.91
2023-04-14T07:56:11.024Z,100810.94
2023-04-14T07:58:40.166Z,100811.72
2023-04-14T08:01:08.110Z,100806.84
2023-04-14T08:03:37.377Z,100806.31
2023-04-14T08:06:06.868Z,100804.66
2023-04-14T08:08:35.014Z,100806.59
2023-04-14T08:11:02.772Z,100803.25
2023-04-14T08:13:30.795Z,100811.94
2023-04-14T08:15:59.985Z,100800.66
2023-04-14T08:18:27.828Z,100799.97
2023-04-14T08:20:55.543Z,100800.09
2023-04-14T08:23:23.440Z,100803.09
2023-04-14T08:25:51.906Z,100801.66
2023-04-14T08:28:19.640Z,100806.22
2023-04-14T08:30:47.837Z,100787.34
2023-04-14T08:33:16.952Z,100799.25
2023-04-14T08:35:44.667Z,100793.81
2023-04-14T08:38:12.529Z,100788.63
2023-04-14T08:40:41.765Z,100795.69
2023-04-14T08:43:10.266Z,100795.81
2023-04-14T08:45:39.532Z,100792.66
2023-04-14T08:48:07.276Z,100796.00
2023-04-14T08:50:38.912Z,100794.53
2023-04-14T08:53:10.219Z,100787.50
2023-04-14T08:55:39.437Z,100805.03
2023-04-14T08:58:10.426Z,100796.84
2023-04-14T09:00:38.951Z,100795.63
2023-04-14T09:03:07.035Z,100793.19
2023-04-14T09:05:34.894Z,100779.81
2023-04-14T09:08:04.819Z,100793.13
2023-04-14T09:10:33.030Z,100795.00
2023-04-14T09:13:01.481Z,100794.22
2023-04-14T09:15:29.397Z,100800.66
2023-04-14T09:17:57.238Z,100795.38
2023-04-14T09:20:35.877Z,100788.59
2023-04-14T09:23:10.686Z,100787.34
2023-04-14T09:25:39.444Z,100779.66
2023-04-14T09:28:07.267Z,100788.50
2023-04-14T09:30:35.322Z,100784.34
2023-04-14T09:33:06.096Z,100787.44
2023-04-14T09:35:44.597Z,100785.81
2023-04-14T09:38:13.700Z,100781.69
2023-04-14T09:40:43.688Z,100785.34
2023-04-14T09:43:24.073Z,100775.19
2023-04-14T09:45:52.013Z,100776.56
2023-04-14T09:48:20.962Z,100782.31
2023-04-14T09:51:07.186Z,100792.38
2023-04-14T09:53:37.482Z,100772.56
2023-04-14T09:56:06.400Z,100784.44
2023-04-14T09:58:35.021Z,100771.72
2023-04-14T10:01:04.568Z,100772.31
2023-04-14T10:03:37.433Z,100778.47
2023-04-14T10:06:09.729Z,100770.94
2023-04-14T10:08:42.052Z,100769.84
2023-04-14T10:11:18.476Z,100779.31
2023-04-14T10:13:46.750Z,100783.78
2023-04-14T10:16:14.789Z,100780.44
2023-04-14T10:18:42.599Z,100780.84
2023-04-14T10:21:11.452Z,100769.22
2023-04-14T10:23:41.527Z,100773.56
2023-04-14T10:26:10.045Z,100773.19
2023-04-14T10:28:39.320Z,100764.81
2023-04-14T10:31:10.131Z,100766.63
2023-04-14T10:33:38.967Z,100765.34
2023-04-14T10:36:07.295Z,100758.34
2023-04-14T10:38:43.929Z,100760.44
2023-04-14T10:41:12.737Z,100754.25
2023-04-14T10:43:41.633Z,100754.06
2023-04-14T10:46:11.310Z,100751.53
2023-04-14T10:48:41.293Z,100749.59
2023-04-14T10:51:10.501Z,100746.19
2023-04-14T10:53:40.116Z,100744.16
2023-04-14T10:56:09.177Z,100741.94
2023-04-14T10:58:37.711Z,100744.03
2023-04-14T11:01:26.105Z,100737.25
2023-04-14T11:03:55.114Z,100735.72
2023-04-14T11:06:52.320Z,100725.78
2023-04-14T11:09:25.317Z,100717.22
2023-04-14T11:11:55.836Z,100721.84
2023-04-14T11:14:27.536Z,100723.66
2023-04-14T11:17:04.141Z,100712.75
2023-04-14T11:19:33.224Z,100718.44
2023-04-14T11:22:01.028Z,100715.03
2023-04-14T11:24:30.005Z,100714.47
2023-04-14T11:27:00.125Z,100699.19
2023-04-14T11:29:27.907Z,100706.50
2023-04-14T11:32:02.817Z,100712.44
2023-04-14T11:34:30.770Z,100702.59
2023-04-14T11:36:58.537Z,100701.16
2023-04-14T11:39:26.356Z,100702.63
2023-04-14T11:41:54.032Z,100713.19
2023-04-14T11:44:23.475Z,100708.47
2023-04-14T11:46:51.178Z,100700.41
2023-04-14T11:49:20.600Z,100700.66
2023-04-14T11:51:49.496Z,100693.84
2023-04-14T11:54:17.215Z,100694.50
2023-04-14T11:56:45.024Z,100697.25
2023-04-14T11:59:12.716Z,100696.78
2023-04-14T12:01:41.844Z,100692.59
2023-04-14T12:04:10.680Z,100692.25
2023-04-14T12:06:39.044Z,100688.75
2023-04-14T12:09:09.951Z,100696.09
2023-04-14T12:11:37.854Z,100691.44
2023-04-14T12:14:05.784Z,100679.59
2023-04-14T12:16:33.572Z,100684.00
2023-04-14T12:19:03.880Z,100691.84
2023-04-14T12:21:32.019Z,100690.56
2023-04-14T12:23:59.752Z,100689.44
2023-04-14T12:26:28.212Z,100688.88
2023-04-14T12:28:59.082Z,100690.34
2023-04-14T12:31:31.130Z,100679.75
2023-04-14T12:34:06.389Z,100680.50
2023-04-14T12:36:48.797Z,100685.97
2023-04-14T12:39:18.038Z,100681.66
2023-04-14T12:41:45.821Z,100674.16
2023-04-14T12:44:16.336Z,100675.22
2023-04-14T12:46:48.778Z,100670.00
2023-04-14T12:49:36.099Z,100670.31
2023-04-14T12:52:04.679Z,100669.47
2023-04-14T12:54:49.893Z,100655.59
2023-04-14T12:57:17.537Z,100664.63
2023-04-14T12:59:45.828Z,100660.81
2023-04-14T13:02:14.099Z,100654.88
2023-04-14T13:04:43.384Z,100648.03
2023-04-14T13:07:11.097Z,100656.97
2023-04-14T13:09:38.813Z,100648.81
2023-04-14T13:12:06.741Z,100656.81
2023-04-14T13:14:34.448Z,100645.78
2023-04-14T13:17:02.568Z,100642.06
2023-04-14T13:19:30.416Z,100640.56
2023-04-14T13:21:59.558Z,100638.91
2023-04-14T13:24:27.305Z,100645.69
2023-04-14T13:26:54.989Z,100644.16
2023-04-14T13:29:22.740Z,100639.47
2023-04-14T13:31:50.504Z,100640.63
2023-04-14T13:34:18.296Z,100648.22
2023-04-14T13:36:45.980Z,100640.53
2023-04-14T13:39:15.467Z,100631.50
2023-04-14T13:41:43.172Z,100639.06
2023-04-14T13:44:10.889Z,100622.41
2023-04-14T13:46:41.509Z,100636.81
2023-04-14T13:49:09.490Z,100629.53
2023-04-14T13:51:37.188Z,100629.78
2023-04-14T13:54:04.985Z,100624.91
2023-04-14T13:56:34.063Z,100619.59
2023-04-14T13:59:02.093Z,100614.81
2023-04-14T14:01:30.000Z,100618.66
2023-04-14T14:03:57.955Z,100614.69
2023-04-14T14:06:26.601Z,100611.78
2023-04-14T14:09:05.259Z,100614.00
2023-04-14T14:11:35.454Z,100610.25
2023-04-14T14:14:03.580Z,100603.41
2023-04-14T14:16:37.225Z,100604.94
2023-04-14T14:19:07.317Z,100602.09
2023-04-14T14:21:35.704Z,100608.22
2023-04-14T14:24:03.754Z,100605.59
2023-04-14T14:26:31.884Z,100602.13
2023-04-14T14:29:01.010Z,100596.78
2023-04-14T14:31:28.784Z,100603.91
2023-04-14T14:33:56.485Z,100594.84
2023-04-14T14:36:24.139Z,100598.19
2023-04-14T14:38:51.860Z,100598.59
2023-04-14T14:41:19.633Z,100582.91
2023-04-14T14:43:47.364Z,100587.66
2023-04-14T14:46:16.768Z,100595.13
2023-04-14T14:48:44.503Z,100582.50
2023-04-14T14:51:12.274Z,100583.72
2023-04-14T14:53:39.861Z,100582.22
2023-04-14T14:56:08.260Z,100579.75
2023-04-14T14:58:36.211Z,100578.81
2023-04-14T15:01:06.052Z,100591.00
2023-04-14T15:03:35.849Z,100581.06
2023-04-14T15:06:03.929Z,100577.50
2023-04-14T15:08:31.639Z,100569.00
2023-04-14T15:10:59.357Z,100568.16
2023-04-14T15:13:29.125Z,100563.88
2023-04-14T15:15:56.749Z,100569.38
2023-04-14T15:18:24.479Z,100569.88
2023-04-14T15:20:55.448Z,100565.81
2023-04-14T15:23:23.263Z,100573.44
2023-04-14T15:25:51.030Z,100565.38
2023-04-14T15:28:18.881Z,100574.00
2023-04-14T15:30:46.563Z,100579.94
2023-04-14T15:33:14.332Z,100568.94
2023-04-14T15:35:42.202Z,100580.59
2023-04-14T15:38:11.366Z,100577.56
2023-04-14T15:40:39.331Z,100576.41
2023-04-14T15:43:07.220Z,100571.28
2023-04-14T15:45:34.999Z,100566.38
2023-04-14T15:48:02.826Z,100562.25
2023-04-14T15:50:30.648Z,100562.09
2023-04-14T15:52:58.686Z,100568.25
2023-04-14T15:55:28.598Z,100557.78
2023-04-14T15:57:56.423Z,100565.28
2023-04-14T16:00:24.365Z,100562.81
2023-04-14T16:02:52.709Z,100561.97
2023-04-14T16:05:20.602Z,100562.47
2023-04-14T16:07:48.425Z,100561.13
2023-04-14T16:10:16.601Z,100572.44
2023-04-14T16:12:45.699Z,100564.28
2023-04-14T16:15:13.529Z,100566.13
2023-04-14T16:17:42.375Z,100561.13
2023-04-14T16:20:11.482Z,100559.75
2023-04-14T16:22:39.234Z,100563.09
2023-04-14T16:25:07.977Z,100560.72
2023-04-14T16:27:35.642Z,100574.00
2023-04-14T16:30:05.653Z,100562.84
2023-04-14T16:32:33.390Z,100571.81
2023-04-14T16:35:01.157Z,100575.16
2023-04-14T16:37:28.950Z,100566.66
2023-04-14T16:39:57.163Z,100568.03
2023-04-14T16:42:26.329Z,100562.38
2023-04-14T16:44:54.459Z,100563.41
2023-04-14T16:47:24.096Z,100559.75
2023-04-14T16:49:52.882Z,100561.44
2023-04-14T16:52:20.833Z,100565.44
2023-04-14T16:54:48.723Z,100564.28
2023-04-14T16:57:16.576Z,100557.28
2023-04-14T16:59:46.129Z,100561.44
2023-04-14T17:02:13.994Z,100556.78
2023-04-14T17:04:43.376Z,100560.78
2023-04-14T17:07:11.654Z,100558.81
2023-04-14T17:09:39.725Z,100559.50
2023-04-14T17:12:07.512Z,100562.81
2023-04-14T17:14:35.655Z,100559.84
2023-04-14T17:17:03.396Z,100553.19
2023-04-14T17:19:31.296Z,100552.19
2023-04-14T17:22:00.510Z,100554.53
2023-04-14T17:24:28.217Z,100563.47
2023-04-14T17:26:57.244Z,100564.66
2023-04-14T17:29:24.962Z,100557.81
2023-04-14T17:31:52.916Z,100568.47
2023-04-14T17:34:20.715Z,100567.81
2023-04-14T17:36:49.857Z,100580.59
2023-04-14T17:39:21.489Z,100565.25
2023-04-14T17:41:49.203Z,100570.06
2023-04-14T17:44:16.920Z,100577.53
2023-04-14T17:46:46.171Z,100587.66
2023-04-14T17:49:13.887Z,100581.31
2023-04-14T17:51:41.681Z,100588.56
2023-04-14T17:54:09.605Z,100586.00
2023-04-14T17:56:38.655Z,100584.94
2023-04-14T17:59:06.660Z,100592.88
2023-04-14T18:01:34.403Z,100589.16
2023-04-14T18:04:04.219Z,100592.31
2023-04-14T18:06:33.570Z,100595.41
2023-04-14T18:09:01.886Z,100598.53
2023-04-14T18:11:30.119Z,100592.81
2023-04-14T18:14:00.087Z,100601.09
2023-04-14T18:16:28.048Z,100605.72
2023-04-14T18:18:55.886Z,100601.72
2023-04-14T18:21:23.671Z,100603.00
2023-04-14T18:28:53.487Z,100612.31
2023-04-14T18:31:22.616Z,100613.78
2023-04-14T18:33:50.986Z,100615.91
2023-04-14T18:36:18.704Z,100616.38
2023-04-14T18:38:46.444Z,100620.28
2023-04-14T18:41:14.189Z,100625.09
2023-04-14T18:43:41.899Z,100620.22
2023-04-14T18:46:09.574Z,100633.50
2023-04-14T18:48:40.477Z,100631.81
2023-04-14T18:51:10.866Z,100624.16
2023-04-14T18:53:41.622Z,100623.78
2023-04-14T18:56:09.816Z,100629.34
2023-04-14T18:58:38.111Z,100627.16
2023-04-14T19:01:05.980Z,100628.31
2023-04-14T19:03:33.821Z,100631.09
2023-04-14T19:06:02.954Z,100629.56
2023-04-14T19:08:30.605Z,100635.03
2023-04-14T19:10:59.193Z,100639.66
2023-04-14T19:13:27.369Z,100646.09
2023-04-14T19:16:05.676Z,100643.75
2023-04-14T19:18:34.025Z,100651.03
2023-04-14T19:21:03.219Z,100637.34
2023-04-14T19:23:31.150Z,100647.13
2023-04-14T19:25:58.783Z,100653.53
2023-04-14T19:28:27.210Z,100654.97
2023-04-14T19:30:55.153Z,100658.63
2023-04-14T19:33:23.440Z,100659.72
2023-04-14T19:35:52.199Z,100663.78
2023-04-14T19:38:21.250Z,100660.56
2023-04-14T19:40:49.268Z,100658.22
2023-04-14T19:43:17.272Z,100666.44
2023-04-14T19:45:52.528Z,100671.06
2023-04-14T19:48:23.949Z,100655.56
2023-04-14T19:50:54.223Z,100667.31
2023-04-14T19:53:24.210Z,100662.16
2023-04-14T19:55:53.614Z,100667.88
2023-04-14T19:58:21.910Z,100669.03
2023-04-14T20:00:51.992Z,100672.91
2023-04-14T20:03:20.264Z,100667.06
2023-04-14T20:05:51.586Z,100670.97
2023-04-14T20:08:20.286Z,100664.31
2023-04-14T20:10:52.474Z,100663.63
2023-04-14T20:13:21.264Z,100667.50
2023-04-14T20:15:49.360Z,100666.97
2023-04-14T20:18:18.339Z,100663.75
2023-04-14T20:20:46.289Z,100667.69
2023-04-14T20:23:14.274Z,100669.59
2023-04-14T20:25:43.230Z,100664.59
2023-04-14T20:28:12.406Z,100672.69
2023-04-14T20:30:40.408Z,100672.13
2023-04-14T20:33:08.148Z,100672.41
2023-04-14T20:35:36.744Z,100673.53
2023-04-14T20:38:04.696Z,100667.66
2023-04-14T20:40:32.574Z,100673.25
2023-04-14T20:43:00.353Z,100676.16
2023-04-14T20:45:29.852Z,100677.44
2023-04-14T20:47:57.661Z,100677.59
2023-04-14T20:50:25.574Z,100676.31
2023-04-14T20:52:53.409Z,100685.25
2023-04-14T20:55:22.077Z,100677.53
2023-04-14T20:57:49.910Z,100679.91
2023-04-14T21:00:18.873Z,100687.16
2023-04-14T21:02:48.827Z,100686.31
2023-04-14T21:05:17.627Z,100693.59
2023-04-14T21:07:45.961Z,100689.66
2023-04-14T21:10:15.354Z,100693.44
2023-04-14T21:15:11.352Z,100696.31
2023-04-14T21:15:54.542Z,100700.91
2023-04-14T21:18:22.001Z,100695.16
2023-04-14T21:20:49.891Z,100694.47
2023-04-14T21:23:18.859Z,100703.53
2023-04-14T21:25:46.810Z,100701.03
2023-04-14T21:28:14.850Z,100696.41
2023-04-14T21:30:42.572Z,100701.56
2023-04-14T21:33:10.724Z,100710.47
2023-04-14T21:35:39.925Z,100704.50
2023-04-14T21:38:08.054Z,100718.81
2023-04-14T21:40:35.765Z,100705.72
2023-04-14T21:43:03.474Z,100711.28
2023-04-14T21:45:31.211Z,100713.34
2023-04-14T21:47:59.121Z,100722.97
2023-04-14T21:50:26.925Z,100706.53
2023-04-14T21:52:56.634Z,100713.88
2023-04-14T21:55:24.440Z,100714.00
2023-04-14T21:57:52.474Z,100712.47
2023-04-14T22:00:21.163Z,100713.16
2023-04-14T22:02:49.766Z,100719.28
2023-04-14T22:05:17.616Z,100708.09
2023-04-14T22:07:46.435Z,100704.75
2023-04-14T22:10:15.684Z,100718.13
2023-04-14T22:12:44.688Z,100718.50
2023-04-14T22:15:12.630Z,100716.97
2023-04-14T22:17:41.106Z,100717.25
2023-04-14T22:20:10.618Z,100711.34
2023-04-14T22:22:38.421Z,100709.00
2023-04-14T22:25:06.884Z,100719.56
2023-04-14T22:27:36.085Z,100715.50
2023-04-14T22:30:04.942Z,100721.75
2023-04-14T22:32:33.240Z,100726.22
2023-04-14T22:35:00.939Z,100727.19
2023-04-14T22:37:28.632Z,100734.41
2023-04-14T22:39:56.890Z,100729.22
2023-04-14T22:42:26.472Z,100731.31
2023-04-14T22:44:55.707Z,100725.69
2023-04-14T22:47:23.516Z,100724.28
2023-04-14T22:49:51.944Z,100731.25
2023-04-14T22:52:19.994Z,100728.97
2023-04-14T22:54:48.702Z,100740.41
2023-04-14T22:57:16.521Z,100735.38
2023-04-14T22:59:44.219Z,100728.66
2023-04-14T23:02:13.441Z,100736.44
2023-04-14T23:04:41.471Z,100733.25
2023-04-14T23:07:09.328Z,100713.69
2023-04-14T23:09:37.011Z,100731.69
2023-04-14T23:12:04.959Z,100737.00
2023-04-14T23:14:33.160Z,100743.22
2023-04-14T23:17:00.929Z,100743.47
2023-04-14T23:19:32.954Z,100734.72
2023-04-14T23:22:00.612Z,100752.50
2023-04-14T23:24:29.367Z,100758.03
2023-04-14T23:26:57.663Z,100753.00
2023-04-14T23:29:25.356Z,100756.63
2023-04-14T23:31:53.055Z,100754.94
2023-04-14T23:34:21.010Z,100749.06
2023-04-14T23:36:50.421Z,100753.50
2023-04-14T23:39:18.551Z,100753.78
2023-04-14T23:41:46.533Z,100749.31
2023-04-14T23:44:14.240Z,100746.03
2023-04-14T23:46:42.012Z,100746.03
2023-04-14T23:49:23.234Z,100743.66
2023-04-14T23:51:53.900Z,100758.81
2023-04-14T23:54:21.533Z,100754.50
2023-04-14T23:56:49.540Z,100751.88
2023-04-14T23:59:17.650Z,100745.13
